Climatologie pour Saint-Brevin les Pins
Jour • Résumé pour mars 26, 2017 Système :  Métrique    Anglais   Mixte
« - 1 jour
+ 1 jour »
Jour Semaine Mois Année Personnalisé
  Maximum : Minimum : Moyenne :
Température sous abri : 18.1 °C 6.1 °C 11.7 °C
Point de rosée : 8.9 °C 5.1 °C 7 °C
Humidité : 95 % 49 % 75 %
Vitesse du vent : 25.7 km/h 0.0 km/h 6.3 km/h
Rafale : 27.4 km/h - -
Direction :- - ESE
Pression : 1017.8 hPa 1014.4 hPa -
Précipitations : 0.0 mm    
Historical Graphs
 
 
Tableau de données pour mars 26, 2017
Heure Tempé Pt rosée Pression Vent Vitesse Rafale Humidité Taux pluie (/hr) Soleil
00:00 9.6 °C 6.8 °C 1014.4 hPa ENE 4.8 km/h 9.7 km/h 83 % 0.0 mm 0 W/m2
00:05 9.4 °C 6.7 °C 1014.8 hPa East 4.8 km/h 6.4 km/h 83 % 0.0 mm 0 W/m2
00:10 9.2 °C 6.7 °C 1014.4 hPa East 4.8 km/h 11.3 km/h 84 % 0.0 mm 0 W/m2
00:15 9.1 °C 6.7 °C 1014.8 hPa ENE 6.4 km/h 11.3 km/h 85 % 0.0 mm 0 W/m2
00:20 9.2 °C 6.8 °C 1014.8 hPa East 4.8 km/h 12.9 km/h 85 % 0.0 mm 0 W/m2
00:25 9.3 °C 6.9 °C 1014.8 hPa East 1.6 km/h 12.9 km/h 85 % 0.0 mm 0 W/m2
00:30 9.4 °C 6.8 °C 1014.8 hPa ENE 6.4 km/h 11.3 km/h 84 % 0.0 mm 0 W/m2
00:35 9.4 °C 6.9 °C 1014.8 hPa ENE 6.4 km/h 12.9 km/h 84 % 0.0 mm 0 W/m2
00:40 9.3 °C 6.8 °C 1014.8 hPa East 3.2 km/h 12.9 km/h 84 % 0.0 mm 0 W/m2
00:45 9.2 °C 6.7 °C 1014.8 hPa East 1.6 km/h 8.0 km/h 84 % 0.0 mm 0 W/m2
00:50 9.1 °C 6.7 °C 1014.8 hPa Calm   8.0 km/h 85 % 0.0 mm 0 W/m2
00:55 9.2 °C 6.8 °C 1014.8 hPa East 3.2 km/h 11.3 km/h 85 % 0.0 mm 0 W/m2
01:00 9.2 °C 6.6 °C 1014.8 hPa SE 3.2 km/h 11.3 km/h 84 % 0.0 mm 0 W/m2
01:10 8.4 °C 6.2 °C 1014.8 hPa ESE 3.2 km/h 4.8 km/h 86 % 0.0 mm 0 W/m2
01:15 8.2 °C 6.2 °C 1014.8 hPa East 1.6 km/h 8.0 km/h 87 % 0.0 mm 0 W/m2
01:20 8.2 °C 6.3 °C 1014.8 hPa East 3.2 km/h 8.0 km/h 88 % 0.0 mm 0 W/m2
01:25 8.1 °C 6.2 °C 1014.8 hPa East 1.6 km/h 8.0 km/h 88 % 0.0 mm 0 W/m2
01:30 8.0 °C 6.0 °C 1014.8 hPa East 1.6 km/h 4.8 km/h 87 % 0.0 mm 0 W/m2
01:35 7.9 °C 6.2 °C 1014.8 hPa East 1.6 km/h 8.0 km/h 89 % 0.0 mm 0 W/m2
01:40 7.9 °C 6.1 °C 1014.8 hPa Calm   8.0 km/h 88 % 0.0 mm 0 W/m2
01:45 7.6 °C 5.7 °C 1014.8 hPa Calm   3.2 km/h 88 % 0.0 mm 0 W/m2
01:50 7.3 °C 5.6 °C 1014.8 hPa Calm   3.2 km/h 89 % 0.0 mm 0 W/m2
01:55 7.0 °C 5.5 °C 1014.8 hPa Calm   3.2 km/h 90 % 0.0 mm 0 W/m2
03:00 6.8 °C 5.3 °C 1014.8 hPa East 1.6 km/h 1.6 km/h 90 % 0.0 mm 0 W/m2
03:05 6.9 °C 5.5 °C 1014.8 hPa East 1.6 km/h 3.2 km/h 91 % 0.0 mm 0 W/m2
03:10 7.1 °C 5.7 °C 1014.8 hPa East 3.2 km/h 4.8 km/h 91 % 0.0 mm 0 W/m2
03:15 7.0 °C 5.6 °C 1014.8 hPa East 3.2 km/h 8.0 km/h 91 % 0.0 mm 0 W/m2
03:20 6.9 °C 5.6 °C 1014.8 hPa East 1.6 km/h 8.0 km/h 91 % 0.0 mm 0 W/m2
03:25 6.8 °C 5.4 °C 1014.8 hPa East 1.6 km/h 4.8 km/h 91 % 0.0 mm 0 W/m2
03:30 6.7 °C 5.4 °C 1014.8 hPa East 1.6 km/h 4.8 km/h 91 % 0.0 mm 0 W/m2
03:35 6.7 °C 5.5 °C 1014.8 hPa SSE 6.4 km/h 6.4 km/h 92 % 0.0 mm 0 W/m2
03:40 7.0 °C 5.8 °C 1015.1 hPa SSE 3.2 km/h 8.0 km/h 92 % 0.0 mm 0 W/m2
03:45 6.9 °C 5.6 °C 1015.1 hPa SSE 1.6 km/h 8.0 km/h 91 % 0.0 mm 0 W/m2
03:55 6.8 °C 5.4 °C 1014.8 hPa Calm   4.8 km/h 91 % 0.0 mm 0 W/m2
04:00 6.6 °C 5.3 °C 1014.8 hPa SSE 1.6 km/h 4.8 km/h 92 % 0.0 mm 0 W/m2
04:05 6.4 °C 5.1 °C 1014.8 hPa SSE 4.8 km/h 4.8 km/h 91 % 0.0 mm 0 W/m2
04:10 6.3 °C 5.1 °C 1014.8 hPa SSE 1.6 km/h 4.8 km/h 92 % 0.0 mm 0 W/m2
04:15 6.1 °C 5.1 °C 1014.8 hPa SSE 3.2 km/h 3.2 km/h 93 % 0.0 mm 0 W/m2
04:20 6.3 °C 5.2 °C 1014.8 hPa Calm   4.8 km/h 93 % 0.0 mm 0 W/m2
04:25 6.3 °C 5.2 °C 1014.8 hPa SSE 3.2 km/h 4.8 km/h 93 % 0.0 mm 0 W/m2
04:30 6.2 °C 5.2 °C 1014.8 hPa SSE 3.2 km/h 6.4 km/h 93 % 0.0 mm 0 W/m2
04:35 6.4 °C 5.5 °C 1014.8 hPa SSE 3.2 km/h 6.4 km/h 94 % 0.0 mm 0 W/m2
04:40 6.3 °C 5.2 °C 1014.8 hPa SSE 4.8 km/h 6.4 km/h 93 % 0.0 mm 0 W/m2
04:45 6.4 °C 5.5 °C 1014.8 hPa SSE 3.2 km/h 6.4 km/h 94 % 0.0 mm 0 W/m2
04:50 6.4 °C 5.5 °C 1014.8 hPa SSE 6.4 km/h 6.4 km/h 94 % 0.0 mm 0 W/m2
04:55 6.4 °C 5.5 °C 1014.8 hPa SSE 3.2 km/h 6.4 km/h 94 % 0.0 mm 0 W/m2
05:00 6.4 °C 5.5 °C 1014.8 hPa SSE 3.2 km/h 6.4 km/h 94 % 0.0 mm 0 W/m2
05:10 6.6 °C 5.7 °C 1014.8 hPa SSE 1.6 km/h 8.0 km/h 94 % 0.0 mm 0 W/m2
05:15 6.6 °C 5.7 °C 1014.8 hPa SSE 3.2 km/h 6.4 km/h 94 % 0.0 mm 0 W/m2
05:20 6.6 °C 5.7 °C 1015.1 hPa SSE 6.4 km/h 8.0 km/h 94 % 0.0 mm 0 W/m2
05:25 6.7 °C 5.8 °C 1015.1 hPa SSE 1.6 km/h 8.0 km/h 94 % 0.0 mm 0 W/m2
05:30 6.7 °C 5.8 °C 1015.1 hPa SSE 4.8 km/h 6.4 km/h 94 % 0.0 mm 0 W/m2
05:35 6.6 °C 5.7 °C 1015.1 hPa SSE 3.2 km/h 8.0 km/h 94 % 0.0 mm 0 W/m2
05:40 6.6 °C 5.7 °C 1015.1 hPa SE 1.6 km/h 8.0 km/h 94 % 0.0 mm 0 W/m2
05:50 6.7 °C 5.8 °C 1015.1 hPa SE 4.8 km/h 8.0 km/h 94 % 0.0 mm 0 W/m2
05:55 6.8 °C 6.1 °C 1015.1 hPa SE 6.4 km/h 8.0 km/h 95 % 0.0 mm 0 W/m2
06:00 7.0 °C 6.1 °C 1015.1 hPa SE 6.4 km/h 8.0 km/h 94 % 0.0 mm 0 W/m2
06:05 7.1 °C 6.2 °C 1015.1 hPa SE 3.2 km/h 8.0 km/h 94 % 0.0 mm 0 W/m2
06:10 7.2 °C 6.3 °C 1015.1 hPa SSE 1.6 km/h 8.0 km/h 94 % 0.0 mm 0 W/m2
06:15 7.3 °C 6.4 °C 1015.1 hPa SE 3.2 km/h 9.7 km/h 94 % 0.0 mm 0 W/m2
06:20 7.5 °C 6.4 °C 1015.1 hPa SE 1.6 km/h 9.7 km/h 93 % 0.0 mm 0 W/m2
06:25 7.7 °C 6.6 °C 1015.1 hPa ESE 1.6 km/h 11.3 km/h 93 % 0.0 mm 0 W/m2
06:30 7.8 °C 6.6 °C 1015.1 hPa SE 1.6 km/h 11.3 km/h 92 % 0.0 mm 0 W/m2
06:35 7.9 °C 6.5 °C 1015.1 hPa SE 1.6 km/h 8.0 km/h 91 % 0.0 mm 0 W/m2
06:40 7.9 °C 6.3 °C 1015.1 hPa SE 1.6 km/h 9.7 km/h 90 % 0.0 mm 0 W/m2
06:45 8.0 °C 6.5 °C 1015.1 hPa SE 4.8 km/h 9.7 km/h 90 % 0.0 mm 0 W/m2
06:50 8.0 °C 6.3 °C 1015.1 hPa SSE 6.4 km/h 9.7 km/h 89 % 0.0 mm 0 W/m2
06:55 8.0 °C 6.3 °C 1015.1 hPa SE 3.2 km/h 8.0 km/h 89 % 0.0 mm 0 W/m2
07:00 8.0 °C 6.3 °C 1015.1 hPa Calm   9.7 km/h 89 % 0.0 mm 0 W/m2
07:05 8.0 °C 6.3 °C 1015.5 hPa SE 3.2 km/h 9.7 km/h 89 % 0.0 mm 0 W/m2
07:10 8.0 °C 6.3 °C 1015.1 hPa Calm   8.0 km/h 89 % 0.0 mm 0 W/m2
07:15 8.1 °C 6.2 °C 1015.5 hPa SE 1.6 km/h 4.8 km/h 88 % 0.0 mm 0 W/m2
07:20 8.1 °C 6.2 °C 1015.5 hPa ESE 4.8 km/h 6.4 km/h 88 % 0.0 mm 0 W/m2
07:25 8.1 °C 6.2 °C 1015.5 hPa ESE 1.6 km/h 6.4 km/h 88 % 0.0 mm 0 W/m2
07:30 8.2 °C 6.2 °C 1015.5 hPa SE 3.2 km/h 6.4 km/h 87 % 0.0 mm 0 W/m2
07:35 8.3 °C 6.1 °C 1015.5 hPa SE 1.6 km/h 8.0 km/h 86 % 0.0 mm 0 W/m2
07:40 8.4 °C 6.2 °C 1015.5 hPa SE 4.8 km/h 11.3 km/h 86 % 0.0 mm 0 W/m2
07:45 8.4 °C 6.1 °C 1015.5 hPa ESE 8.0 km/h 11.3 km/h 85 % 0.0 mm 0 W/m2
07:50 8.4 °C 6.2 °C 1015.5 hPa ESE 3.2 km/h 9.7 km/h 86 % 0.0 mm 0 W/m2
07:55 8.4 °C 6.2 °C 1015.5 hPa ESE 3.2 km/h 9.7 km/h 86 % 0.0 mm 0 W/m2
08:00 8.4 °C 6.2 °C 1015.5 hPa Calm   6.4 km/h 86 % 0.0 mm 0 W/m2
08:05 8.3 °C 6.1 °C 1015.8 hPa ESE 3.2 km/h 8.0 km/h 86 % 0.0 mm 5 W/m2
08:10 8.2 °C 6.0 °C 1015.8 hPa Calm   8.0 km/h 86 % 0.0 mm 7 W/m2
08:15 8.2 °C 6.0 °C 1015.8 hPa SE 4.8 km/h 6.4 km/h 86 % 0.0 mm 11 W/m2
08:20 8.0 °C 6.0 °C 1015.8 hPa SE 3.2 km/h 6.4 km/h 87 % 0.0 mm 14 W/m2
08:25 7.9 °C 6.0 °C 1015.8 hPa Calm   6.4 km/h 88 % 0.0 mm 23 W/m2
08:30 7.9 °C 6.0 °C 1015.8 hPa ESE 4.8 km/h 6.4 km/h 88 % 0.0 mm 28 W/m2
08:35 7.9 °C 6.2 °C 1015.8 hPa ESE 4.8 km/h 6.4 km/h 89 % 0.0 mm 32 W/m2
08:40 8.0 °C 6.3 °C 1015.8 hPa ESE 1.6 km/h 6.4 km/h 89 % 0.0 mm 35 W/m2
08:45 8.1 °C 6.4 °C 1015.8 hPa ESE 3.2 km/h 6.4 km/h 89 % 0.0 mm 40 W/m2
08:50 8.1 °C 6.4 °C 1016.1 hPa SE 3.2 km/h 8.0 km/h 89 % 0.0 mm 49 W/m2
08:55 8.2 °C 6.5 °C 1016.1 hPa ESE 3.2 km/h 8.0 km/h 89 % 0.0 mm 51 W/m2
09:00 8.2 °C 6.4 °C 1016.1 hPa ESE 4.8 km/h 8.0 km/h 88 % 0.0 mm 63 W/m2
09:05 8.3 °C 6.5 °C 1016.1 hPa ESE 1.6 km/h 6.4 km/h 88 % 0.0 mm 77 W/m2
09:10 8.5 °C 6.6 °C 1016.1 hPa SE 4.8 km/h 8.0 km/h 88 % 0.0 mm 77 W/m2
09:15 8.6 °C 6.6 °C 1016.1 hPa ESE 4.8 km/h 8.0 km/h 87 % 0.0 mm 93 W/m2
09:20 8.8 °C 6.6 °C 1016.1 hPa SE 4.8 km/h 8.0 km/h 86 % 0.0 mm 125 W/m2
09:25 9.0 °C 6.8 °C 1016.1 hPa SE 3.2 km/h 8.0 km/h 86 % 0.0 mm 158 W/m2
09:30 9.2 °C 6.8 °C 1016.1 hPa SE 1.6 km/h 8.0 km/h 85 % 0.0 mm 137 W/m2
09:35 9.4 °C 7.0 °C 1016.1 hPa ESE 1.6 km/h 6.4 km/h 85 % 0.0 mm 141 W/m2
09:40 9.5 °C 6.9 °C 1016.5 hPa SE 4.8 km/h 11.3 km/h 84 % 0.0 mm 130 W/m2
09:45 9.6 °C 6.8 °C 1016.5 hPa SE 8.0 km/h 11.3 km/h 83 % 0.0 mm 120 W/m2
09:50 9.6 °C 7.0 °C 1016.5 hPa ESE 3.2 km/h 11.3 km/h 84 % 0.0 mm 137 W/m2
09:55 9.7 °C 7.0 °C 1016.5 hPa SE 1.6 km/h 11.3 km/h 83 % 0.0 mm 137 W/m2
10:00 9.8 °C 7.1 °C 1016.1 hPa SE 4.8 km/h 9.7 km/h 83 % 0.0 mm 123 W/m2
10:05 9.9 °C 7.0 °C 1016.5 hPa ESE 1.6 km/h 11.3 km/h 82 % 0.0 mm 121 W/m2
10:10 9.9 °C 7.0 °C 1016.5 hPa East 8.0 km/h 11.3 km/h 82 % 0.0 mm 125 W/m2
10:15 10.0 °C 7.2 °C 1016.5 hPa ESE 3.2 km/h 11.3 km/h 83 % 0.0 mm 146 W/m2
10:20 10.1 °C 7.2 °C 1016.5 hPa ESE 4.8 km/h 12.9 km/h 82 % 0.0 mm 158 W/m2
10:25 10.2 °C 7.3 °C 1016.5 hPa SE 4.8 km/h 12.9 km/h 82 % 0.0 mm 171 W/m2
10:30 10.4 °C 7.3 °C 1016.5 hPa ESE 4.8 km/h 12.9 km/h 81 % 0.0 mm 202 W/m2
10:35 10.6 °C 7.5 °C 1016.8 hPa SE 11.3 km/h 11.3 km/h 81 % 0.0 mm 232 W/m2
10:40 10.8 °C 7.5 °C 1016.8 hPa East 8.0 km/h 14.5 km/h 80 % 0.0 mm 299 W/m2
10:45 11.1 °C 7.7 °C 1016.8 hPa ESE 11.3 km/h 14.5 km/h 80 % 0.0 mm 309 W/m2
10:50 11.2 °C 7.9 °C 1016.8 hPa ESE 3.2 km/h 14.5 km/h 80 % 0.0 mm 232 W/m2
10:55 11.3 °C 7.8 °C 1016.8 hPa ESE 12.9 km/h 16.1 km/h 79 % 0.0 mm 318 W/m2
11:00 11.6 °C 8.2 °C 1016.8 hPa ESE 12.9 km/h 16.1 km/h 80 % 0.0 mm 281 W/m2
11:05 11.7 °C 8.0 °C 1017.2 hPa ESE 12.9 km/h 16.1 km/h 78 % 0.0 mm 462 W/m2
11:10 12.1 °C 8.2 °C 1017.2 hPa ESE 14.5 km/h 17.7 km/h 77 % 0.0 mm 499 W/m2
11:15 12.6 °C 8.4 °C 1017.2 hPa ESE 8.0 km/h 17.7 km/h 76 % 0.0 mm 512 W/m2
11:20 12.7 °C 8.2 °C 1017.2 hPa SSE 6.4 km/h 17.7 km/h 74 % 0.0 mm 483 W/m2
11:25 12.9 °C 8.4 °C 1017.2 hPa SE 17.7 km/h 19.3 km/h 74 % 0.0 mm 504 W/m2
11:30 13.1 °C 8.6 °C 1017.2 hPa ESE 6.4 km/h 19.3 km/h 74 % 0.0 mm 450 W/m2
11:35 13.2 °C 7.9 °C 1017.2 hPa ESE 8.0 km/h 20.9 km/h 70 % 0.0 mm 469 W/m2
11:40 13.3 °C 8.0 °C 1017.2 hPa ESE 11.3 km/h 20.9 km/h 70 % 0.0 mm 478 W/m2
11:45 13.6 °C 8.4 °C 1017.2 hPa ESE 6.4 km/h 19.3 km/h 71 % 0.0 mm 497 W/m2
11:50 13.8 °C 7.8 °C 1017.2 hPa SSE 9.7 km/h 20.9 km/h 67 % 0.0 mm 513 W/m2
11:55 14.0 °C 8.2 °C 1017.2 hPa ESE 3.2 km/h 20.9 km/h 68 % 0.0 mm 526 W/m2
12:00 14.3 °C 7.8 °C 1017.5 hPa SSE 6.4 km/h 22.5 km/h 65 % 0.0 mm 541 W/m2
12:05 14.3 °C 8.0 °C 1017.2 hPa ESE 6.4 km/h 22.5 km/h 66 % 0.0 mm 496 W/m2
12:10 14.6 °C 7.8 °C 1017.5 hPa ESE 17.7 km/h 24.1 km/h 64 % 0.0 mm 506 W/m2
12:15 14.4 °C 7.7 °C 1017.5 hPa ESE 16.1 km/h 24.1 km/h 64 % 0.0 mm 438 W/m2
12:20 14.4 °C 8.4 °C 1017.5 hPa ESE 4.8 km/h 22.5 km/h 67 % 0.0 mm 380 W/m2
12:25 14.5 °C 8.2 °C 1017.5 hPa ESE 16.1 km/h 24.1 km/h 66 % 0.0 mm 378 W/m2
12:30 14.4 °C 8.1 °C 1017.5 hPa ESE 11.3 km/h 24.1 km/h 66 % 0.0 mm 432 W/m2
12:35 14.4 °C 7.7 °C 1017.5 hPa ESE 19.3 km/h 24.1 km/h 64 % 0.0 mm 476 W/m2
12:40 14.6 °C 8.3 °C 1017.5 hPa SSE 4.8 km/h 24.1 km/h 66 % 0.0 mm 371 W/m2
12:45 14.6 °C 8.3 °C 1017.5 hPa SE 17.7 km/h 22.5 km/h 66 % 0.0 mm 325 W/m2
12:50 14.3 °C 8.1 °C 1017.5 hPa SSE 17.7 km/h 20.9 km/h 66 % 0.0 mm 315 W/m2
12:55 14.2 °C 8.1 °C 1017.5 hPa SE 9.7 km/h 20.9 km/h 67 % 0.0 mm 346 W/m2
13:00 14.4 °C 8.6 °C 1017.5 hPa SSW 9.7 km/h 22.5 km/h 68 % 0.0 mm 323 W/m2
13:05 14.3 °C 8.5 °C 1017.5 hPa SSE 11.3 km/h 22.5 km/h 68 % 0.0 mm 295 W/m2
13:10 14.3 °C 8.5 °C 1017.5 hPa SE 6.4 km/h 19.3 km/h 68 % 0.0 mm 313 W/m2
13:15 14.4 °C 8.1 °C 1017.5 hPa SSE 17.7 km/h 24.1 km/h 66 % 0.0 mm 299 W/m2
13:20 14.2 °C 8.0 °C 1017.5 hPa East 12.9 km/h 24.1 km/h 66 % 0.0 mm 309 W/m2
13:25 14.2 °C 8.2 °C 1017.5 hPa SSE 9.7 km/h 19.3 km/h 67 % 0.0 mm 320 W/m2
13:30 14.4 °C 8.4 °C 1017.8 hPa SSE 4.8 km/h 20.9 km/h 67 % 0.0 mm 323 W/m2
13:35 14.4 °C 8.3 °C 1017.5 hPa ESE 14.5 km/h 20.9 km/h 67 % 0.0 mm 299 W/m2
13:40 14.4 °C 8.2 °C 1017.5 hPa ESE 12.9 km/h 22.5 km/h 66 % 0.0 mm 302 W/m2
13:45 14.3 °C 7.8 °C 1017.8 hPa SE 25.7 km/h 25.7 km/h 65 % 0.0 mm 294 W/m2
13:50 14.2 °C 8.0 °C 1017.5 hPa SSE 11.3 km/h 25.7 km/h 66 % 0.0 mm 279 W/m2
13:55 14.3 °C 8.2 °C 1017.5 hPa SSE 8.0 km/h 24.1 km/h 67 % 0.0 mm 292 W/m2
14:00 14.2 °C 8.2 °C 1017.5 hPa SE 14.5 km/h 22.5 km/h 67 % 0.0 mm 285 W/m2
14:05 14.4 °C 8.3 °C 1017.5 hPa SE 16.1 km/h 22.5 km/h 67 % 0.0 mm 336 W/m2
14:10 14.5 °C 8.0 °C 1017.5 hPa SE 11.3 km/h 20.9 km/h 65 % 0.0 mm 427 W/m2
14:15 14.8 °C 8.3 °C 1017.5 hPa East 9.7 km/h 20.9 km/h 65 % 0.0 mm 438 W/m2
14:20 15.0 °C 8.2 °C 1017.5 hPa ENE 17.7 km/h 24.1 km/h 64 % 0.0 mm 408 W/m2
14:25 15.2 °C 8.2 °C 1017.5 hPa SE 8.0 km/h 25.7 km/h 63 % 0.0 mm 425 W/m2
14:30 15.4 °C 8.2 °C 1017.5 hPa ESE 22.5 km/h 25.7 km/h 62 % 0.0 mm 504 W/m2
14:35 15.4 °C 8.4 °C 1017.5 hPa SE 11.3 km/h 24.1 km/h 63 % 0.0 mm 371 W/m2
14:40 15.3 °C 8.1 °C 1017.5 hPa East 14.5 km/h 24.1 km/h 62 % 0.0 mm 334 W/m2
14:45 15.7 °C 8.9 °C 1017.5 hPa ESE 4.8 km/h 24.1 km/h 64 % 0.0 mm 735 W/m2
14:50 16.2 °C 8.4 °C 1017.5 hPa ESE 14.5 km/h 24.1 km/h 60 % 0.0 mm 735 W/m2
14:55 16.2 °C 7.9 °C 1017.5 hPa SE 20.9 km/h 24.1 km/h 58 % 0.0 mm 350 W/m2
15:00 15.7 °C 8.0 °C 1017.2 hPa ESE 16.1 km/h 22.5 km/h 60 % 0.0 mm 274 W/m2
15:10 15.6 °C 7.8 °C 1017.2 hPa ESE 14.5 km/h 20.9 km/h 60 % 0.0 mm 297 W/m2
15:15 16.5 °C 8.5 °C 1017.2 hPa SE 14.5 km/h 20.9 km/h 59 % 0.0 mm 944 W/m2
15:20 16.8 °C 7.9 °C 1017.2 hPa Calm   20.9 km/h 56 % 0.0 mm 687 W/m2
15:25 16.9 °C 8.6 °C 1017.2 hPa ESE 12.9 km/h 20.9 km/h 58 % 0.0 mm 589 W/m2
15:30 17.2 °C 7.5 °C 1016.8 hPa SE 16.1 km/h 24.1 km/h 53 % 0.0 mm 777 W/m2
15:35 17.6 °C 7.0 °C 1016.8 hPa SSE 9.7 km/h 25.7 km/h 50 % 0.0 mm 652 W/m2
15:40 17.3 °C 7.4 °C 1016.8 hPa South 4.8 km/h 25.7 km/h 52 % 0.0 mm 633 W/m2
15:45 17.4 °C 7.8 °C 1016.8 hPa ESE 3.2 km/h 20.9 km/h 53 % 0.0 mm 652 W/m2
15:55 17.4 °C 7.5 °C 1016.8 hPa ESE 16.1 km/h 27.4 km/h 52 % 0.0 mm 647 W/m2
16:00 17.3 °C 8.1 °C 1016.8 hPa SE 11.3 km/h 27.4 km/h 55 % 0.0 mm 636 W/m2
16:05 17.5 °C 8.6 °C 1016.8 hPa SSE 1.6 km/h 24.1 km/h 56 % 0.0 mm 619 W/m2
16:10 17.7 °C 8.0 °C 1016.5 hPa ESE 16.1 km/h 24.1 km/h 53 % 0.0 mm 612 W/m2
16:15 17.7 °C 8.5 °C 1016.5 hPa SE 12.9 km/h 22.5 km/h 55 % 0.0 mm 612 W/m2
16:20 17.8 °C 8.3 °C 1016.5 hPa SE 9.7 km/h 19.3 km/h 54 % 0.0 mm 605 W/m2
16:25 17.8 °C 8.4 °C 1016.5 hPa SSE 11.3 km/h 19.3 km/h 54 % 0.0 mm 589 W/m2
16:30 17.9 °C 7.7 °C 1016.5 hPa East 11.3 km/h 20.9 km/h 51 % 0.0 mm 596 W/m2
16:35 17.7 °C 8.2 °C 1016.5 hPa SSE 4.8 km/h 20.9 km/h 54 % 0.0 mm 571 W/m2
16:40 17.7 °C 8.0 °C 1016.5 hPa ESE 3.2 km/h 16.1 km/h 53 % 0.0 mm 571 W/m2
16:45 17.8 °C 8.1 °C 1016.5 hPa ESE 3.2 km/h 17.7 km/h 53 % 0.0 mm 476 W/m2
16:50 18.0 °C 7.7 °C 1016.5 hPa SE 16.1 km/h 20.9 km/h 51 % 0.0 mm 557 W/m2
16:55 17.8 °C 7.3 °C 1016.5 hPa SE 14.5 km/h 20.9 km/h 50 % 0.0 mm 552 W/m2
17:00 18.1 °C 7.8 °C 1016.5 hPa SSE 8.0 km/h 20.9 km/h 51 % 0.0 mm 573 W/m2
17:05 17.9 °C 7.7 °C 1016.5 hPa East 9.7 km/h 20.9 km/h 51 % 0.0 mm 512 W/m2
17:10 17.9 °C 7.1 °C 1016.5 hPa SE 14.5 km/h 17.7 km/h 49 % 0.0 mm 510 W/m2
17:15 17.9 °C 7.3 °C 1016.1 hPa East 16.1 km/h 24.1 km/h 50 % 0.0 mm 522 W/m2
17:20 17.8 °C 7.2 °C 1016.1 hPa ENE 4.8 km/h 24.1 km/h 50 % 0.0 mm 496 W/m2
17:25 17.7 °C 7.4 °C 1016.1 hPa ESE 8.0 km/h 20.9 km/h 51 % 0.0 mm 496 W/m2
17:30 17.4 °C 8.0 °C 1016.1 hPa ESE 14.5 km/h 19.3 km/h 54 % 0.0 mm 482 W/m2
17:40 17.3 °C 7.6 °C 1016.5 hPa SE 6.4 km/h 17.7 km/h 53 % 0.0 mm 98 W/m2
17:45 16.8 °C 7.7 °C 1016.5 hPa Calm   16.1 km/h 55 % 0.0 mm 155 W/m2
17:50 16.7 °C 7.6 °C 1016.5 hPa ESE 8.0 km/h 14.5 km/h 55 % 0.0 mm 109 W/m2
17:55 16.5 °C 7.7 °C 1016.5 hPa ESE 8.0 km/h 16.1 km/h 56 % 0.0 mm 109 W/m2
18:05 16.3 °C 7.8 °C 1016.1 hPa ESE 14.5 km/h 16.1 km/h 57 % 0.0 mm 91 W/m2
18:10 16.2 °C 7.7 °C 1016.5 hPa ESE 11.3 km/h 16.1 km/h 57 % 0.0 mm 127 W/m2
18:15 16.3 °C 7.7 °C 1016.5 hPa ESE 3.2 km/h 14.5 km/h 57 % 0.0 mm 281 W/m2
18:20 17.0 °C 8.2 °C 1016.1 hPa East 6.4 km/h 17.7 km/h 56 % 0.0 mm 237 W/m2
18:25 17.3 °C 8.1 °C 1016.1 hPa East 4.8 km/h 17.7 km/h 55 % 0.0 mm 69 W/m2
18:30 17.2 °C 7.8 °C 1016.1 hPa East 4.8 km/h 17.7 km/h 54 % 0.0 mm 162 W/m2
18:35 17.1 °C 7.7 °C 1016.1 hPa ESE 16.1 km/h 16.1 km/h 54 % 0.0 mm 171 W/m2
18:40 17.1 °C 7.7 °C 1016.1 hPa East 6.4 km/h 16.1 km/h 54 % 0.0 mm 188 W/m2
18:45 17.1 °C 7.7 °C 1016.1 hPa East 4.8 km/h 16.1 km/h 54 % 0.0 mm 84 W/m2
18:50 17.1 °C 7.4 °C 1016.1 hPa East 11.3 km/h 17.7 km/h 53 % 0.0 mm 63 W/m2
19:00 16.8 °C 7.9 °C 1016.1 hPa East 6.4 km/h 16.1 km/h 56 % 0.0 mm 44 W/m2
19:05 16.7 °C 7.6 °C 1016.1 hPa SE 12.9 km/h 14.5 km/h 55 % 0.0 mm 40 W/m2
19:10 16.6 °C 7.5 °C 1016.1 hPa SE 6.4 km/h 17.7 km/h 55 % 0.0 mm 53 W/m2
19:15 16.6 °C 7.5 °C 1016.1 hPa ESE 8.0 km/h 17.7 km/h 55 % 0.0 mm 58 W/m2
19:20 16.5 °C 7.4 °C 1016.1 hPa East 3.2 km/h 17.7 km/h 55 % 0.0 mm 37 W/m2
19:25 16.3 °C 7.5 °C 1016.1 hPa ESE 3.2 km/h 14.5 km/h 56 % 0.0 mm 33 W/m2
19:30 16.1 °C 7.3 °C 1016.1 hPa ESE 1.6 km/h 14.5 km/h 56 % 0.0 mm 32 W/m2
19:35 15.9 °C 7.4 °C 1016.1 hPa SE 6.4 km/h 14.5 km/h 57 % 0.0 mm 30 W/m2
19:40 15.8 °C 7.5 °C 1016.1 hPa East 9.7 km/h 11.3 km/h 58 % 0.0 mm 26 W/m2
19:45 15.7 °C 7.4 °C 1016.1 hPa East 4.8 km/h 11.3 km/h 58 % 0.0 mm 25 W/m2
19:50 15.5 °C 7.3 °C 1016.1 hPa ESE 4.8 km/h 11.3 km/h 58 % 0.0 mm 21 W/m2
19:55 15.3 °C 7.1 °C 1016.1 hPa East 4.8 km/h 11.3 km/h 58 % 0.0 mm 19 W/m2
20:05 14.9 °C 7.0 °C 1016.5 hPa SE 3.2 km/h 11.3 km/h 59 % 0.0 mm 16 W/m2
20:10 14.8 °C 7.1 °C 1016.5 hPa ESE 3.2 km/h 11.3 km/h 60 % 0.0 mm 12 W/m2
20:15 14.5 °C 7.1 °C 1016.5 hPa ESE 4.8 km/h 9.7 km/h 61 % 0.0 mm 11 W/m2
20:20 14.3 °C 7.1 °C 1016.5 hPa ESE 3.2 km/h 8.0 km/h 62 % 0.0 mm 9 W/m2
20:25 14.1 °C 6.9 °C 1016.5 hPa ESE 1.6 km/h 8.0 km/h 62 % 0.0 mm 5 W/m2
20:30 13.7 °C 7.0 °C 1016.5 hPa ESE 3.2 km/h 8.0 km/h 64 % 0.0 mm 0 W/m2
20:35 13.5 °C 6.8 °C 1016.8 hPa ESE 3.2 km/h 8.0 km/h 64 % 0.0 mm 0 W/m2
20:40 13.1 °C 6.8 °C 1016.5 hPa ESE 1.6 km/h 6.4 km/h 66 % 0.0 mm 0 W/m2
20:45 12.7 °C 6.7 °C 1016.8 hPa Calm   6.4 km/h 67 % 0.0 mm 0 W/m2
20:55 11.7 °C 6.8 °C 1016.8 hPa ESE 3.2 km/h 4.8 km/h 72 % 0.0 mm 0 W/m2
21:00 11.5 °C 6.6 °C 1016.8 hPa East 1.6 km/h 4.8 km/h 72 % 0.0 mm 0 W/m2
21:05 11.1 °C 6.6 °C 1016.8 hPa East 4.8 km/h 4.8 km/h 74 % 0.0 mm 0 W/m2
21:10 11.2 °C 6.7 °C 1016.8 hPa East 4.8 km/h 6.4 km/h 74 % 0.0 mm 0 W/m2
21:15 11.3 °C 6.8 °C 1016.8 hPa East 8.0 km/h 9.7 km/h 74 % 0.0 mm 0 W/m2
21:20 11.4 °C 6.8 °C 1016.8 hPa East 3.2 km/h 9.7 km/h 73 % 0.0 mm 0 W/m2
21:25 11.6 °C 6.7 °C 1017.2 hPa East 4.8 km/h 9.7 km/h 72 % 0.0 mm 0 W/m2
21:30 11.7 °C 6.8 °C 1017.2 hPa East 8.0 km/h 9.7 km/h 72 % 0.0 mm 0 W/m2
21:35 11.6 °C 6.7 °C 1017.2 hPa East 4.8 km/h 9.7 km/h 72 % 0.0 mm 0 W/m2
21:40 11.6 °C 6.7 °C 1017.2 hPa East 4.8 km/h 9.7 km/h 72 % 0.0 mm 0 W/m2
21:45 11.6 °C 6.7 °C 1017.2 hPa East 4.8 km/h 9.7 km/h 72 % 0.0 mm 0 W/m2
21:50 11.6 °C 6.7 °C 1017.2 hPa East 4.8 km/h 8.0 km/h 72 % 0.0 mm 0 W/m2
21:55 11.4 °C 6.8 °C 1017.5 hPa East 3.2 km/h 9.7 km/h 73 % 0.0 mm 0 W/m2
22:00 11.3 °C 6.6 °C 1017.5 hPa ENE 6.4 km/h 9.7 km/h 73 % 0.0 mm 0 W/m2
22:05 11.3 °C 6.7 °C 1017.5 hPa East 3.2 km/h 9.7 km/h 73 % 0.0 mm 0 W/m2
22:10 11.2 °C 6.7 °C 1017.5 hPa ENE 11.3 km/h 11.3 km/h 74 % 0.0 mm 0 W/m2
22:15 11.3 °C 6.8 °C 1017.5 hPa East 4.8 km/h 11.3 km/h 74 % 0.0 mm 0 W/m2
22:20 11.1 °C 6.6 °C 1017.5 hPa East 4.8 km/h 11.3 km/h 74 % 0.0 mm 0 W/m2
22:25 10.9 °C 6.7 °C 1017.5 hPa East 8.0 km/h 12.9 km/h 75 % 0.0 mm 0 W/m2
22:30 10.8 °C 6.8 °C 1017.5 hPa East 8.0 km/h 12.9 km/h 76 % 0.0 mm 0 W/m2
22:35 10.8 °C 6.8 °C 1017.5 hPa East 8.0 km/h 14.5 km/h 76 % 0.0 mm 0 W/m2
22:40 10.9 °C 7.0 °C 1017.5 hPa ESE 8.0 km/h 14.5 km/h 77 % 0.0 mm 0 W/m2
22:45 10.9 °C 7.1 °C 1017.5 hPa ENE 6.4 km/h 14.5 km/h 77 % 0.0 mm 0 W/m2
22:50 10.9 °C 7.3 °C 1017.5 hPa ENE 6.4 km/h 11.3 km/h 78 % 0.0 mm 0 W/m2
22:55 10.8 °C 7.3 °C 1017.5 hPa East 3.2 km/h 11.3 km/h 79 % 0.0 mm 0 W/m2
23:00 10.7 °C 7.4 °C 1017.5 hPa East 3.2 km/h 12.9 km/h 80 % 0.0 mm 0 W/m2
23:05 10.6 °C 7.2 °C 1017.5 hPa East 4.8 km/h 12.9 km/h 80 % 0.0 mm 0 W/m2
23:10 10.5 °C 7.4 °C 1017.5 hPa ENE 4.8 km/h 11.3 km/h 81 % 0.0 mm 0 W/m2
23:15 10.4 °C 7.5 °C 1017.5 hPa East 6.4 km/h 11.3 km/h 82 % 0.0 mm 0 W/m2
23:20 10.5 °C 7.6 °C 1017.5 hPa East 4.8 km/h 11.3 km/h 82 % 0.0 mm 0 W/m2
23:30 10.3 °C 7.6 °C 1017.5 hPa East 8.0 km/h 12.9 km/h 83 % 0.0 mm 0 W/m2
23:35 10.3 °C 7.5 °C 1017.5 hPa East 4.8 km/h 12.9 km/h 83 % 0.0 mm 0 W/m2
23:40 10.2 °C 7.6 °C 1017.5 hPa NE 8.0 km/h 11.3 km/h 84 % 0.0 mm 0 W/m2
23:45 10.1 °C 7.5 °C 1017.5 hPa East 3.2 km/h 11.3 km/h 84 % 0.0 mm 0 W/m2
23:50 10.1 °C 7.5 °C 1017.5 hPa East 8.0 km/h 11.3 km/h 84 % 0.0 mm 0 W/m2
23:55 10.0 °C 7.4 °C 1017.5 hPa East 4.8 km/h 11.3 km/h 84 % 0.0 mm 0 W/m2
Avec l'autorisation de Weather Underground - 1.5 mb